createdAt,value
2018-12-18T00:02:13.589Z,77.88
2018-12-18T00:04:36.781Z,78.07
2018-12-18T00:06:59.939Z,77.83
2018-12-18T00:09:23.058Z,78.17
2018-12-18T00:11:46.500Z,78.89
2018-12-18T00:14:09.592Z,78.23
2018-12-18T00:16:32.771Z,79.88
2018-12-18T00:18:55.897Z,78.27
2018-12-18T00:21:19.019Z,78.30
2018-12-18T00:23:42.157Z,79.00
2018-12-18T00:26:05.289Z,78.68
2018-12-18T00:28:28.437Z,78.99
2018-12-18T00:30:52.210Z,78.55
2018-12-18T00:33:15.341Z,78.74
2018-12-18T00:35:38.494Z,78.06
2018-12-18T00:38:01.607Z,78.80
2018-12-18T00:40:24.793Z,77.96
2018-12-18T00:42:47.911Z,78.27
2018-12-18T00:45:11.080Z,78.32
2018-12-18T00:47:34.221Z,78.00
2018-12-18T00:49:57.379Z,79.50
2018-12-18T00:52:20.532Z,78.03
2018-12-18T00:54:43.709Z,78.13
2018-12-18T00:57:06.837Z,77.20
2018-12-18T00:59:29.986Z,76.92
2018-12-18T01:01:58.612Z,76.15
2018-12-18T01:04:21.786Z,77.07
2018-12-18T01:06:44.956Z,77.57
2018-12-18T01:09:08.168Z,76.98
2018-12-18T01:11:31.703Z,78.10
2018-12-18T01:13:54.828Z,77.38
2018-12-18T01:16:17.943Z,76.78
2018-12-18T01:18:41.076Z,78.19
2018-12-18T01:21:04.275Z,77.60
2018-12-18T01:23:27.437Z,77.71
2018-12-18T01:25:50.584Z,78.23
2018-12-18T01:28:13.756Z,77.68
2018-12-18T01:30:36.866Z,77.25
2018-12-18T01:33:00.014Z,75.60
2018-12-18T01:35:23.129Z,76.67
2018-12-18T01:37:46.250Z,76.97
2018-12-18T01:40:09.459Z,76.12
2018-12-18T01:42:32.562Z,76.99
2018-12-18T01:44:55.684Z,76.75
2018-12-18T01:47:18.838Z,77.62
2018-12-18T01:49:42.011Z,77.96
2018-12-18T01:52:05.125Z,76.89
2018-12-18T01:54:28.276Z,77.70
2018-12-18T01:56:51.400Z,79.05
2018-12-18T01:59:14.565Z,78.70
2018-12-18T02:01:37.705Z,76.36
2018-12-18T02:04:05.948Z,75.94
2018-12-18T02:06:25.957Z,75.39
2018-12-18T02:08:49.099Z,77.90
2018-12-18T02:11:12.252Z,77.37
2018-12-18T02:13:35.373Z,78.54
2018-12-18T02:15:58.524Z,78.17
2018-12-18T02:18:21.679Z,78.41
2018-12-18T02:20:44.815Z,78.56
2018-12-18T02:23:08.002Z,78.89
2018-12-18T02:25:31.106Z,78.10
2018-12-18T02:27:54.297Z,79.30
2018-12-18T02:30:17.437Z,78.27
2018-12-18T02:32:40.597Z,78.77
2018-12-18T02:35:04.424Z,78.98
2018-12-18T02:37:27.575Z,78.88
2018-12-18T02:39:50.776Z,77.58
2018-12-18T02:42:13.905Z,78.93
2018-12-18T02:44:37.138Z,79.89
2018-12-18T02:47:00.287Z,80.05
2018-12-18T02:49:23.412Z,79.22
2018-12-18T02:51:46.570Z,79.26
2018-12-18T02:54:09.674Z,79.62
2018-12-18T02:56:32.820Z,79.61
2018-12-18T02:58:56.034Z,78.80
2018-12-18T03:01:19.148Z,79.60
2018-12-18T03:03:42.305Z,80.31
2018-12-18T03:06:05.465Z,79.34
2018-12-18T03:08:28.643Z,79.85
2018-12-18T03:10:51.802Z,79.55
2018-12-18T03:13:14.978Z,80.39
2018-12-18T03:15:38.178Z,80.36
2018-12-18T03:18:01.309Z,81.27
2018-12-18T03:20:24.450Z,80.54
2018-12-18T03:22:47.597Z,80.07
2018-12-18T03:25:10.711Z,79.25
2018-12-18T03:27:33.853Z,79.40
2018-12-18T03:29:57.017Z,78.75
2018-12-18T03:32:21.703Z,78.68
2018-12-18T03:34:44.825Z,78.68
2018-12-18T03:37:07.961Z,78.11
2018-12-18T03:39:31.076Z,78.80
2018-12-18T03:41:54.222Z,78.81
2018-12-18T03:44:17.353Z,79.04
2018-12-18T03:46:40.935Z,79.76
2018-12-18T03:49:04.073Z,78.25
2018-12-18T03:51:27.235Z,78.36
2018-12-18T03:53:50.339Z,79.50
2018-12-18T03:56:13.444Z,78.75
2018-12-18T03:58:36.570Z,79.51
2018-12-18T04:00:59.711Z,79.58
2018-12-18T04:03:22.878Z,79.15
2018-12-18T04:05:46.001Z,79.50
2018-12-18T04:08:09.169Z,79.10
2018-12-18T04:10:32.285Z,79.22
2018-12-18T04:12:55.395Z,79.37
2018-12-18T04:15:18.554Z,79.04
2018-12-18T04:17:41.692Z,79.83
2018-12-18T04:20:05.191Z,78.75
2018-12-18T04:22:28.368Z,79.01
2018-12-18T04:24:51.507Z,78.26
2018-12-18T04:27:14.635Z,78.59
2018-12-18T04:29:37.737Z,78.87
2018-12-18T04:32:00.878Z,78.92
2018-12-18T04:34:24.038Z,77.71
2018-12-18T04:36:47.188Z,77.87
2018-12-18T04:39:10.291Z,77.79
2018-12-18T04:41:33.520Z,77.30
2018-12-18T04:43:56.652Z,77.42
2018-12-18T04:46:19.811Z,77.56
2018-12-18T04:48:42.953Z,77.68
2018-12-18T04:51:06.078Z,77.87
2018-12-18T04:53:29.199Z,77.59
2018-12-18T04:55:52.326Z,77.71
2018-12-18T04:58:15.495Z,77.55
2018-12-18T05:00:38.629Z,77.34
2018-12-18T05:03:01.740Z,77.58
2018-12-18T05:05:24.912Z,77.54
2018-12-18T05:07:48.014Z,78.27
2018-12-18T05:10:11.242Z,77.42
2018-12-18T05:12:34.366Z,78.08
2018-12-18T05:14:57.489Z,77.27
2018-12-18T05:17:20.639Z,77.37
2018-12-18T05:19:43.759Z,78.47
2018-12-18T05:22:06.945Z,77.90
2018-12-18T05:24:30.064Z,78.28
2018-12-18T05:26:53.247Z,76.94
2018-12-18T05:29:16.391Z,77.66
2018-12-18T05:31:39.511Z,76.78
2018-12-18T05:34:02.626Z,77.21
2018-12-18T05:36:26.015Z,77.01
2018-12-18T05:38:49.307Z,78.16
2018-12-18T05:41:12.459Z,78.63
2018-12-18T05:43:35.575Z,77.52
2018-12-18T05:45:58.698Z,78.40
2018-12-18T05:48:21.834Z,78.18
2018-12-18T05:50:44.996Z,78.27
2018-12-18T05:53:08.095Z,77.88
2018-12-18T05:55:31.211Z,77.94
2018-12-18T05:57:54.376Z,77.48
2018-12-18T06:00:17.519Z,77.09
2018-12-18T06:02:40.618Z,77.52
2018-12-18T06:05:04.621Z,77.60
2018-12-18T06:07:27.776Z,76.44
2018-12-18T06:09:50.922Z,75.21
2018-12-18T06:12:14.086Z,76.42
2018-12-18T06:14:37.194Z,76.09
2018-12-18T06:17:00.366Z,75.77
2018-12-18T06:19:23.486Z,76.72
2018-12-18T06:21:46.654Z,76.58
2018-12-18T06:24:09.779Z,76.97
2018-12-18T06:26:32.904Z,76.69
2018-12-18T06:28:56.027Z,76.58
2018-12-18T06:31:19.127Z,76.88
2018-12-18T06:33:42.266Z,76.93
2018-12-18T06:36:05.414Z,76.75
2018-12-18T06:38:28.558Z,76.20
2018-12-18T06:40:51.691Z,76.62
2018-12-18T06:43:14.790Z,77.12
2018-12-18T06:45:37.958Z,75.52
2018-12-18T06:48:01.083Z,76.03
2018-12-18T06:50:25.707Z,76.00
2018-12-18T06:52:48.827Z,74.58
2018-12-18T06:55:11.926Z,74.73
2018-12-18T06:57:35.072Z,75.17
2018-12-18T06:59:58.201Z,75.15
2018-12-18T07:02:21.360Z,75.55
2018-12-18T07:04:44.489Z,75.50
2018-12-18T07:07:07.614Z,75.88
2018-12-18T07:09:30.734Z,75.33
2018-12-18T07:11:53.877Z,76.57
2018-12-18T07:14:17.025Z,75.52
2018-12-18T07:16:40.151Z,75.22
2018-12-18T07:19:03.498Z,74.06
2018-12-18T07:21:26.606Z,74.68
2018-12-18T07:23:54.558Z,75.57
2018-12-18T07:26:17.711Z,76.39
2018-12-18T07:28:40.894Z,75.11
2018-12-18T07:31:04.006Z,75.70
2018-12-18T07:33:27.220Z,74.71
2018-12-18T07:35:50.342Z,74.88
2018-12-18T07:38:13.459Z,74.84
2018-12-18T07:40:36.617Z,74.69
2018-12-18T07:42:59.728Z,75.49
2018-12-18T07:45:22.861Z,75.22
2018-12-18T07:47:45.970Z,74.42
2018-12-18T07:50:09.193Z,74.45
2018-12-18T07:52:32.351Z,76.85
2018-12-18T07:54:55.515Z,75.67
2018-12-18T07:57:18.668Z,75.51
2018-12-18T07:59:41.774Z,75.40
2018-12-18T08:02:05.046Z,76.21
2018-12-18T08:04:28.186Z,75.53
2018-12-18T08:06:51.318Z,73.86
2018-12-18T08:09:14.466Z,75.45
2018-12-18T08:11:37.595Z,74.52
2018-12-18T08:14:00.730Z,75.12
2018-12-18T08:16:23.905Z,74.63
2018-12-18T08:18:47.015Z,75.32
2018-12-18T08:21:10.178Z,75.39
2018-12-18T08:23:33.294Z,74.29
2018-12-18T08:25:56.417Z,74.36
2018-12-18T08:28:19.567Z,74.34
2018-12-18T08:30:42.722Z,75.14
2018-12-18T08:33:05.850Z,73.89
2018-12-18T08:35:28.965Z,73.75
2018-12-18T08:37:52.124Z,74.32
2018-12-18T08:40:15.275Z,74.05
2018-12-18T08:42:38.393Z,73.44
2018-12-18T08:45:01.549Z,72.69
2018-12-18T08:47:25.355Z,73.50
2018-12-18T08:49:48.472Z,73.42
2018-12-18T08:52:11.656Z,73.28
2018-12-18T08:54:34.848Z,74.34
2018-12-18T08:56:58.026Z,73.87
2018-12-18T08:59:21.134Z,74.12
2018-12-18T09:01:44.273Z,73.25
2018-12-18T09:04:07.463Z,73.09
2018-12-18T09:06:30.630Z,72.87
2018-12-18T09:08:53.734Z,73.32
2018-12-18T09:11:16.879Z,73.18
2018-12-18T09:13:39.990Z,74.78
2018-12-18T09:16:05.082Z,73.90
2018-12-18T09:18:28.236Z,73.88
2018-12-18T09:20:51.397Z,74.67
2018-12-18T09:23:14.950Z,75.34
2018-12-18T09:25:38.120Z,73.90
2018-12-18T09:28:01.311Z,73.77
2018-12-18T09:30:24.429Z,73.95
2018-12-18T09:32:47.616Z,73.11
2018-12-18T09:35:10.784Z,73.58
2018-12-18T09:37:33.947Z,73.66
2018-12-18T09:39:57.102Z,74.32
2018-12-18T09:42:25.724Z,74.47
2018-12-18T09:44:48.848Z,73.42
2018-12-18T09:47:12.017Z,73.12
2018-12-18T09:49:35.158Z,72.75
2018-12-18T09:51:58.306Z,74.03
2018-12-18T09:54:21.469Z,73.61
2018-12-18T09:56:50.525Z,73.21
2018-12-18T09:59:13.702Z,73.24
2018-12-18T10:01:36.807Z,74.03
2018-12-18T10:03:59.929Z,75.23
2018-12-18T10:06:23.064Z,75.65
2018-12-18T10:08:46.264Z,74.72
2018-12-18T10:11:09.429Z,74.47
2018-12-18T10:13:32.538Z,73.90
2018-12-18T10:15:55.785Z,73.23
2018-12-18T10:18:18.892Z,73.31
2018-12-18T10:20:42.064Z,73.09
2018-12-18T10:23:05.228Z,72.28
2018-12-18T10:25:28.437Z,71.48
2018-12-18T10:27:51.613Z,70.51
2018-12-18T10:30:14.759Z,71.66
2018-12-18T10:32:37.873Z,71.85
2018-12-18T10:35:01.019Z,69.79
2018-12-18T10:37:24.146Z,68.95
2018-12-18T10:39:47.263Z,69.16
2018-12-18T10:42:10.454Z,69.04
2018-12-18T10:44:33.666Z,68.89
2018-12-18T10:46:56.809Z,68.23
2018-12-18T10:49:19.967Z,66.37
2018-12-18T10:51:43.096Z,67.35
2018-12-18T10:54:06.246Z,66.80
2018-12-18T10:56:29.397Z,66.76
2018-12-18T10:58:52.565Z,66.47
2018-12-18T11:01:17.658Z,65.37
2018-12-18T11:03:40.809Z,66.75
2018-12-18T11:06:09.599Z,68.12
2018-12-18T11:08:29.070Z,68.47
2018-12-18T11:10:52.196Z,65.99
2018-12-18T11:13:17.238Z,65.88
2018-12-18T11:15:40.352Z,67.75
2018-12-18T11:18:03.507Z,66.35
2018-12-18T11:20:26.623Z,66.57
2018-12-18T11:22:49.734Z,65.27
2018-12-18T11:25:12.881Z,65.72
2018-12-18T11:27:35.993Z,65.83
2018-12-18T11:29:59.185Z,66.05
2018-12-18T11:32:22.307Z,67.08
2018-12-18T11:34:45.425Z,67.52
2018-12-18T11:37:08.574Z,66.66
2018-12-18T11:39:31.700Z,66.29
2018-12-18T11:41:54.858Z,66.64
2018-12-18T11:44:17.971Z,66.82
2018-12-18T11:46:41.105Z,67.11
2018-12-18T11:49:04.275Z,67.17
2018-12-18T11:51:27.409Z,66.56
2018-12-18T11:53:50.551Z,65.44
2018-12-18T11:56:13.699Z,62.23
2018-12-18T11:58:36.827Z,58.10
2018-12-18T12:01:00.061Z,59.16
2018-12-18T12:03:23.184Z,59.06
2018-12-18T12:05:46.321Z,62.01
2018-12-18T12:08:09.446Z,61.95
2018-12-18T12:10:32.566Z,61.63
2018-12-18T12:12:55.742Z,60.98
2018-12-18T12:15:18.879Z,60.84
2018-12-18T12:17:42.081Z,60.40
2018-12-18T12:20:05.303Z,62.38
2018-12-18T12:22:28.437Z,64.15
2018-12-18T12:24:52.428Z,64.22
2018-12-18T12:27:21.206Z,63.83
2018-12-18T12:29:44.352Z,64.87
2018-12-18T12:32:07.497Z,65.76
2018-12-18T12:34:30.635Z,65.59
2018-12-18T12:36:53.774Z,66.39
2018-12-18T12:39:16.890Z,65.37
2018-12-18T12:41:40.058Z,65.07
2018-12-18T12:44:03.241Z,66.01
2018-12-18T12:46:26.401Z,63.54
2018-12-18T12:48:54.870Z,65.22
2018-12-18T12:51:18.006Z,65.87
2018-12-18T12:53:48.958Z,65.43
2018-12-18T12:56:12.125Z,67.23
2018-12-18T12:58:35.239Z,66.57
2018-12-18T13:00:58.392Z,67.67
2018-12-18T13:03:21.547Z,67.54
2018-12-18T13:05:44.693Z,67.48
2018-12-18T13:08:07.821Z,67.93
2018-12-18T13:10:30.978Z,68.61
2018-12-18T13:12:54.109Z,67.46
2018-12-18T13:15:17.228Z,67.97
2018-12-18T13:17:40.373Z,67.42
2018-12-18T13:20:04.259Z,66.60
2018-12-18T13:22:27.408Z,67.58
2018-12-18T13:24:50.501Z,66.17
2018-12-18T13:27:13.655Z,67.46
2018-12-18T13:29:37.221Z,66.64
2018-12-18T13:32:00.341Z,65.46
2018-12-18T13:34:23.509Z,64.61
2018-12-18T13:36:46.623Z,65.33
2018-12-18T13:39:09.877Z,65.33
2018-12-18T13:41:33.012Z,64.90
2018-12-18T13:43:56.120Z,64.37
2018-12-18T13:46:19.226Z,64.87
2018-12-18T13:48:42.408Z,65.53
2018-12-18T13:51:05.532Z,65.15
2018-12-18T13:53:28.625Z,65.31
2018-12-18T13:55:51.812Z,65.63
2018-12-18T13:58:14.938Z,64.15
2018-12-18T14:00:38.047Z,64.02
2018-12-18T14:03:01.193Z,64.13
2018-12-18T14:05:24.316Z,64.36
2018-12-18T14:07:47.500Z,65.68
2018-12-18T14:10:10.654Z,64.80
2018-12-18T14:12:33.807Z,64.88
2018-12-18T14:14:56.944Z,64.37
2018-12-18T14:17:20.059Z,64.53
2018-12-18T14:19:43.210Z,64.26
2018-12-18T14:22:06.380Z,64.41
2018-12-18T14:24:29.493Z,64.32
2018-12-18T14:26:52.628Z,64.68
2018-12-18T14:29:15.751Z,63.81
2018-12-18T14:31:38.897Z,63.97
2018-12-18T14:34:02.004Z,64.57
2018-12-18T14:36:25.158Z,64.84
2018-12-18T14:38:48.289Z,64.73
2018-12-18T14:41:11.460Z,64.26
2018-12-18T14:43:34.613Z,65.27
2018-12-18T14:45:57.799Z,64.38
2018-12-18T14:48:20.920Z,65.35
2018-12-18T14:50:44.062Z,64.99
2018-12-18T14:53:07.168Z,64.81
2018-12-18T14:55:30.320Z,65.43
2018-12-18T14:57:53.410Z,64.87
2018-12-18T15:00:16.577Z,65.51
2018-12-18T15:02:39.699Z,64.65
2018-12-18T15:05:02.830Z,65.33
2018-12-18T15:07:25.964Z,65.32
2018-12-18T15:09:49.050Z,64.83
2018-12-18T15:12:12.205Z,65.56
2018-12-18T15:14:35.328Z,65.73
2018-12-18T15:16:58.430Z,65.08
2018-12-18T15:19:21.558Z,65.10
2018-12-18T15:21:44.738Z,65.33
2018-12-18T15:24:07.866Z,65.23
2018-12-18T15:26:31.099Z,65.40
2018-12-18T15:28:54.236Z,67.02
2018-12-18T15:31:17.419Z,66.21
2018-12-18T15:33:40.551Z,65.93
2018-12-18T15:36:03.703Z,66.11
2018-12-18T15:38:26.971Z,65.39
2018-12-18T15:40:50.098Z,65.71
2018-12-18T15:43:13.228Z,66.22
2018-12-18T15:45:36.402Z,66.13
2018-12-18T15:47:59.532Z,65.90
2018-12-18T15:50:22.676Z,66.27
2018-12-18T15:52:45.806Z,65.61
2018-12-18T15:55:08.928Z,65.87
2018-12-18T15:57:32.111Z,66.02
2018-12-18T15:59:55.231Z,65.69
2018-12-18T16:02:24.120Z,65.36
2018-12-18T16:04:43.476Z,65.90
2018-12-18T16:07:06.584Z,66.01
2018-12-18T16:09:29.743Z,66.71
2018-12-18T16:11:52.861Z,66.08
2018-12-18T16:14:15.980Z,66.49
2018-12-18T16:16:39.128Z,65.85
2018-12-18T16:19:02.236Z,66.75
2018-12-18T16:21:25.401Z,66.72
2018-12-18T16:23:48.548Z,66.69
2018-12-18T16:26:11.653Z,66.20
2018-12-18T16:28:34.799Z,66.60
2018-12-18T16:30:57.927Z,66.25
2018-12-18T16:33:21.065Z,66.50
2018-12-18T16:35:46.268Z,66.11
2018-12-18T16:38:09.365Z,66.39
2018-12-18T16:40:32.501Z,66.74
2018-12-18T16:42:55.635Z,66.82
2018-12-18T16:45:18.854Z,67.13
2018-12-18T16:47:42.011Z,66.96
2018-12-18T16:50:05.548Z,67.08
2018-12-18T16:52:28.691Z,66.63
2018-12-18T16:54:51.811Z,66.29
2018-12-18T16:57:14.972Z,67.25
2018-12-18T16:59:38.100Z,66.41
2018-12-18T17:02:01.221Z,67.27
2018-12-18T17:04:24.363Z,67.27
2018-12-18T17:06:47.492Z,66.86
2018-12-18T17:09:10.683Z,67.40
2018-12-18T17:11:33.848Z,66.71
2018-12-18T17:13:56.983Z,67.37
2018-12-18T17:16:20.131Z,67.34
2018-12-18T17:18:43.272Z,67.51
2018-12-18T17:21:06.497Z,68.01
2018-12-18T17:23:29.654Z,67.86
2018-12-18T17:25:52.770Z,67.55
2018-12-18T17:28:15.934Z,67.17
2018-12-18T17:30:39.069Z,67.74
2018-12-18T17:33:02.226Z,67.48
2018-12-18T17:35:25.351Z,68.12
2018-12-18T17:37:48.478Z,67.84
2018-12-18T17:40:11.594Z,68.03
2018-12-18T17:42:34.752Z,67.86
2018-12-18T17:44:57.869Z,67.65
2018-12-18T17:47:27.792Z,67.44
2018-12-18T17:49:50.987Z,67.49
2018-12-18T17:52:14.139Z,68.03
2018-12-18T17:54:37.296Z,68.48
2018-12-18T17:57:00.449Z,68.00
2018-12-18T17:59:23.571Z,67.70
2018-12-18T18:01:46.748Z,67.58
2018-12-18T18:04:09.892Z,67.65
2018-12-18T18:06:33.099Z,68.40
2018-12-18T18:08:56.253Z,67.57
2018-12-18T18:11:19.411Z,68.62
2018-12-18T18:13:42.531Z,69.06
2018-12-18T18:16:05.661Z,68.49
2018-12-18T18:18:28.826Z,68.54
2018-12-18T18:20:51.924Z,68.91
2018-12-18T18:23:15.088Z,68.23
2018-12-18T18:25:38.200Z,68.09
2018-12-18T18:28:01.322Z,68.49
2018-12-18T18:30:24.464Z,68.42
2018-12-18T18:32:47.653Z,67.60
2018-12-18T18:35:10.779Z,68.30
2018-12-18T18:37:33.933Z,68.01
2018-12-18T18:39:57.080Z,67.25
2018-12-18T18:42:20.275Z,68.44
2018-12-18T18:44:43.402Z,67.54
2018-12-18T18:47:06.548Z,68.06
2018-12-18T18:49:29.686Z,69.05
2018-12-18T18:51:52.813Z,67.66
2018-12-18T18:54:15.995Z,67.32
2018-12-18T18:56:39.121Z,68.43
2018-12-18T18:59:02.309Z,68.62
2018-12-18T19:01:25.446Z,68.23
2018-12-18T19:03:48.561Z,67.24
2018-12-18T19:06:11.741Z,68.54
2018-12-18T19:11:20.687Z,68.40
2018-12-18T19:13:43.821Z,68.13
2018-12-18T19:16:07.004Z,68.26
2018-12-18T19:18:30.157Z,67.43
2018-12-18T19:20:53.339Z,67.56
2018-12-18T19:23:16.496Z,68.05
2018-12-18T19:25:39.598Z,67.70
2018-12-18T19:28:02.716Z,67.45
2018-12-18T19:30:25.855Z,68.15
2018-12-18T19:32:48.958Z,67.95
2018-12-18T19:35:12.149Z,67.04
2018-12-18T19:37:35.292Z,67.38
2018-12-18T19:39:58.430Z,68.43
2018-12-18T19:42:21.830Z,68.65
2018-12-18T19:44:45.401Z,68.48
2018-12-18T19:47:08.543Z,68.41
2018-12-18T19:49:31.697Z,68.42
2018-12-18T19:51:54.815Z,68.15
2018-12-18T19:54:17.951Z,67.75
2018-12-18T19:56:41.048Z,67.91
2018-12-18T19:59:10.660Z,68.53
2018-12-18T20:01:29.426Z,68.70
2018-12-18T20:03:52.510Z,67.41
2018-12-18T20:06:15.719Z,68.06
2018-12-18T20:08:38.871Z,67.73
2018-12-18T20:11:02.052Z,67.69
2018-12-18T20:13:25.181Z,68.11
2018-12-18T20:15:48.360Z,68.21
2018-12-18T20:18:11.481Z,67.61
2018-12-18T20:20:34.602Z,67.67
2018-12-18T20:22:57.803Z,68.14
2018-12-18T20:25:20.931Z,67.54
2018-12-18T20:27:44.085Z,69.34
2018-12-18T20:30:07.331Z,67.34
2018-12-18T20:32:30.470Z,67.57
2018-12-18T20:34:53.646Z,67.67
2018-12-18T20:37:18.348Z,68.52
2018-12-18T20:39:41.728Z,67.70
2018-12-18T20:42:04.928Z,67.31
2018-12-18T20:44:28.062Z,67.19
2018-12-18T20:46:51.172Z,67.32
2018-12-18T20:49:14.335Z,67.54
2018-12-18T20:51:37.443Z,67.28
2018-12-18T20:54:00.558Z,68.29
2018-12-18T20:56:23.722Z,67.83
2018-12-18T20:58:46.832Z,67.56
2018-12-18T21:01:09.935Z,68.06
2018-12-18T21:03:33.083Z,68.74
2018-12-18T21:08:32.136Z,69.08
2018-12-18T21:10:55.238Z,68.66
2018-12-18T21:13:24.095Z,68.16
2018-12-18T21:15:47.247Z,68.08
2018-12-18T21:18:10.394Z,69.10
2018-12-18T21:20:33.593Z,68.43
2018-12-18T21:22:56.707Z,68.79
2018-12-18T21:25:19.822Z,69.37
2018-12-18T21:27:44.513Z,68.34
2018-12-18T21:30:08.919Z,68.50
2018-12-18T21:32:32.075Z,68.87
2018-12-18T21:34:55.252Z,69.23
2018-12-18T21:37:18.371Z,68.16
2018-12-18T21:39:42.663Z,68.65
2018-12-18T21:42:05.774Z,69.33
2018-12-18T21:44:28.919Z,69.16
2018-12-18T21:46:52.045Z,68.66
2018-12-18T21:49:15.145Z,68.83
2018-12-18T21:51:38.302Z,69.11
2018-12-18T21:54:01.410Z,68.50
2018-12-18T21:56:24.521Z,69.00
2018-12-18T21:58:47.633Z,68.26
2018-12-18T22:01:10.749Z,69.87
2018-12-18T22:03:33.865Z,69.17
2018-12-18T22:05:56.963Z,69.77
2018-12-18T22:08:20.126Z,69.02
2018-12-18T22:10:43.238Z,69.42
2018-12-18T22:13:06.379Z,69.20
2018-12-18T22:15:29.534Z,69.19
2018-12-18T22:17:52.627Z,69.17
2018-12-18T22:20:15.747Z,68.48
2018-12-18T22:22:38.886Z,68.65
2018-12-18T22:25:02.033Z,68.58
2018-12-18T22:27:25.155Z,68.04
2018-12-18T22:29:48.406Z,69.02
2018-12-18T22:32:11.499Z,68.46
2018-12-18T22:34:34.626Z,68.52
2018-12-18T22:36:57.754Z,69.77
2018-12-18T22:39:20.851Z,68.78
2018-12-18T22:41:43.982Z,67.80
2018-12-18T22:44:07.105Z,69.09
2018-12-18T22:46:30.212Z,69.34
2018-12-18T22:48:53.334Z,69.10
2018-12-18T22:51:16.482Z,68.71
2018-12-18T22:53:39.597Z,69.11
2018-12-18T22:56:02.712Z,67.89
2018-12-18T22:58:25.837Z,68.21
2018-12-18T23:00:52.781Z,69.03
2018-12-18T23:03:15.889Z,68.77
2018-12-18T23:05:38.990Z,67.52
2018-12-18T23:08:02.117Z,68.31
2018-12-18T23:10:25.259Z,68.37
2018-12-18T23:12:48.404Z,69.79
2018-12-18T23:15:11.530Z,68.58
2018-12-18T23:17:34.677Z,69.60
2018-12-18T23:19:57.803Z,69.23
2018-12-18T23:22:20.918Z,69.01
2018-12-18T23:24:44.075Z,67.98
2018-12-18T23:27:07.159Z,69.04
2018-12-18T23:29:30.274Z,67.92
2018-12-18T23:31:53.399Z,68.60
2018-12-18T23:34:16.510Z,68.00
2018-12-18T23:36:40.171Z,69.03
2018-12-18T23:39:05.255Z,68.15
2018-12-18T23:41:28.396Z,68.56
2018-12-18T23:43:51.517Z,67.81
2018-12-18T23:46:14.627Z,68.23
2018-12-18T23:48:39.862Z,68.62
2018-12-18T23:51:03.533Z,70.51
2018-12-18T23:53:26.624Z,69.92
2018-12-18T23:55:49.719Z,69.10
2018-12-18T23:58:12.858Z,68.29
